Data for 12/29/2010

Time Sea-Level Adjusted Pressure Absolute Pressure Temperature Relative Humidity Dew Point   
(mb) (inHg) (mb) (inHg) (C) (F) (%) (C) (F)
00:05 997 29.44 826 24.39 0.3 32.5 60 -6.6 20.1
00:10 996 29.41 826 24.39 0.3 32.5 59 -6.9 19.6
00:15 996 29.41 826 24.39 0.4 32.7 59 -6.7 20
00:20 996 29.41 825 24.36 0.4 32.7 60 -6.5 20.2
00:25 996 29.41 825 24.36 0.2 32.3 60 -6.7 19.9
00:30 996 29.41 825 24.36 0.3 32.5 58 -7 19.5
00:35 996 29.41 825 24.36 0.6 33.1 57 -6.9 19.7
00:40 996 29.41 825 24.36 0.8 33.4 56 -7 19.4
00:45 996 29.41 825 24.36 0.9 33.6 56 -6.9 19.6
00:50 995 29.38 825 24.36 0.7 33.3 58 -6.7 20
00:55 995 29.38 824 24.33 0.8 33.4 57 -6.9 19.7
01:00 995 29.38 824 24.33 0.8 33.5 56 -6.9 19.6
01:05 995 29.38 824 24.33 0.9 33.6 56 -7 19.4
01:10 995 29.38 824 24.33 1 33.8 56 -6.9 19.7
01:15 995 29.38 824 24.33 1 33.8 55 -7.1 19.2
01:20 995 29.38 824 24.33 1.2 34.1 55 -6.8 19.7
01:25 995 29.38 824 24.33 1.2 34.1 55 -6.9 19.6
01:30 995 29.38 824 24.33 1.2 34.1 56 -6.7 19.9
01:35 995 29.38 824 24.33 1.2 34.1 56 -6.7 19.9
01:40 995 29.38 824 24.33 1.2 34.1 55 -6.8 19.8
01:45 994 29.35 824 24.33 1.2 34.1 55 -6.8 19.7
01:50 994 29.35 824 24.33 1.3 34.3 55 -6.8 19.7
01:55 994 29.35 823 24.3 1.3 34.4 54 -7.1 19.2
02:00 994 29.35 823 24.3 1.4 34.5 54 -6.9 19.6
02:05 994 29.35 823 24.3 1.4 34.5 55 -6.7 20
02:10 994 29.35 823 24.3 1.2 34.2 56 -6.5 20.3
02:15 994 29.35 823 24.3 0.9 33.6 59 -6.2 20.9
02:20 994 29.35 823 24.3 0.6 33 63 -5.7 21.7
02:25 994 29.35 823 24.3 0.6 33 61 -6 21.1
02:30 994 29.35 823 24.3 0.4 32.8 63 -5.7 21.7
02:35 994 29.35 823 24.3 0.2 32.4 64 -5.7 21.7
02:40 994 29.35 823 24.3 0.1 32.1 65 -5.8 21.5
02:45 994 29.35 823 24.3 -0 32 65 -5.8 21.6
02:50 994 29.35 823 24.3 0 32.1 65 -5.7 21.8
02:55 994 29.35 823 24.3 -0 31.9 66 -5.6 21.9
03:00 993 29.32 823 24.3 -0.1 31.7 67 -5.6 22
03:05 993 29.32 823 24.3 -0.2 31.7 66 -5.7 21.8
03:10 993 29.32 822 24.27 -0.1 31.8 66 -5.7 21.8
03:15 993 29.32 822 24.27 -0.1 31.9 66 -5.7 21.8
03:20 993 29.32 822 24.27 -0 32 64 -5.9 21.3
03:25 993 29.32 822 24.27 0.2 32.3 64 -5.9 21.4
03:30 993 29.32 822 24.27 0.3 32.5 63 -5.9 21.3
03:35 993 29.32 822 24.27 0.4 32.6 63 -5.9 21.3
03:40 993 29.32 822 24.27 0.4 32.7 63 -5.8 21.5
03:45 992 29.29 822 24.27 0.3 32.6 63 -5.9 21.4
03:50 992 29.29 821 24.24 0.3 32.6 64 -5.7 21.7
03:55 992 29.29 821 24.24 0.3 32.5 64 -5.7 21.8
04:00 992 29.29 821 24.24 0.3 32.5 64 -5.7 21.7
04:05 992 29.29 821 24.24 0.3 32.5 65 -5.6 22
04:10 992 29.29 821 24.24 0.4 32.6 64 -5.7 21.8
04:15 992 29.29 821 24.24 0.4 32.7 65 -5.4 22.2
04:20 992 29.29 821 24.24 0.4 32.8 66 -5.3 22.5
04:25 991 29.26 821 24.24 0.4 32.7 67 -5.1 22.9
04:30 991 29.26 821 24.24 0.4 32.7 68 -4.8 23.3
04:35 991 29.26 820 24.21 0.4 32.6 68 -4.9 23.3
04:40 991 29.26 820 24.21 0.3 32.5 68 -4.9 23.2
04:45 991 29.26 820 24.21 0.3 32.5 69 -4.7 23.6
04:50 991 29.26 820 24.21 0.4 32.7 69 -4.6 23.6
04:55 991 29.26 820 24.21 0.3 32.6 70 -4.5 24
05:00 991 29.26 820 24.21 0.4 32.8 72 -4 24.8
05:05 991 29.26 820 24.21 0.5 32.9 70 -4.4 24.1
05:10 991 29.26 820 24.21 0.4 32.8 69 -4.5 23.9
05:15 991 29.26 820 24.21 0.4 32.8 70 -4.4 24.1
05:20 991 29.26 820 24.21 0.5 33 70 -4.4 24.2
05:25 991 29.26 820 24.21 0.6 33 70 -4.4 24.1
05:30 991 29.26 820 24.21 0.5 32.9 69 -4.5 23.9
05:35 990 29.23 820 24.21 0.4 32.8 72 -4 24.8
05:40 990 29.23 820 24.21 0.4 32.7 68 -4.8 23.4
05:45 990 29.23 819 24.19 0.2 32.3 73 -4.2 24.5
05:50 990 29.23 819 24.19 0.1 32.3 71 -4.5 23.9
05:55 990 29.23 819 24.19 0 32.1 72 -4.4 24.1
06:00 990 29.23 819 24.19 -0.3 31.4 74 -4.4 24.1
06:05 990 29.23 819 24.19 -0.5 31.1 76 -4.3 24.3
06:10 990 29.23 819 24.19 -0.5 31 78 -3.9 24.9
06:15 990 29.23 819 24.19 -0.5 31.1 77 -4 24.9
06:20 990 29.23 819 24.19 -0.5 31.1 80 -3.6 25.6
06:25 990 29.23 819 24.19 -0.7 30.8 83 -3.1 26.4
06:30 990 29.23 819 24.19 -0.9 30.3 86 -3 26.6
06:35 990 29.23 819 24.19 -1.3 29.7 88 -3 26.6
06:40 990 29.23 819 24.19 -1.4 29.5 89 -3 26.6
06:45 990 29.23 819 24.19 -1.4 29.5 89 -3 26.6
06:50 990 29.23 819 24.19 -1.4 29.4 89 -3 26.5
06:55 990 29.23 819 24.19 -1.5 29.4 89 -3.1 26.5
07:00 990 29.23 819 24.19 -1.6 29.1 90 -3 26.6
07:05 990 29.23 819 24.19 -1.7 29 91 -2.9 26.8
07:10 990 29.23 819 24.19 -1.7 29 92 -2.8 27
07:15 990 29.23 819 24.19 -1.7 28.9 93 -2.7 27.2
07:20 990 29.23 819 24.19 -1.7 28.9 93 -2.6 27.3
07:25 990 29.23 819 24.19 -1.7 29 94 -2.5 27.5
07:30 990 29.23 819 24.19 -1.6 29.1 95 -2.4 27.7
07:35 990 29.23 819 24.19 -1.5 29.2 95 -2.3 27.9
07:40 990 29.23 819 24.19 -1.5 29.4 95 -2.2 28.1
07:45 990 29.23 819 24.19 -1.4 29.5 95 -2.1 28.2
07:50 990 29.23 819 24.19 -1.4 29.5 95 -2.1 28.2
07:55 990 29.23 819 24.19 -1.4 29.6 95 -2.1 28.3
08:00 990 29.23 819 24.19 -1.3 29.6 95 -2.1 28.3
08:05 990 29.23 819 24.19 -1.3 29.6 95 -2.1 28.2
08:10 990 29.23 819 24.19 -1.4 29.6 94 -2.1 28.2
08:15 990 29.23 819 24.19 -1.3 29.6 94 -2.2 28.1
08:20 990 29.23 819 24.19 -1.3 29.6 94 -2.2 28.1
08:25 990 29.23 819 24.19 -1.4 29.5 94 -2.2 28
08:30 990 29.23 819 24.19 -1.4 29.5 94 -2.3 27.9
08:35 989 29.21 819 24.19 -1.3 29.7 93 -2.3 27.9
08:40 989 29.21 819 24.19 -1.2 29.8 93 -2.3 27.8
08:45 989 29.21 819 24.19 -1.2 29.9 92 -2.3 27.8
08:50 989 29.21 819 24.19 -1.1 30 91 -2.4 27.7
08:55 989 29.21 819 24.19 -1.1 30.1 91 -2.4 27.7
09:00 989 29.21 819 24.19 -1 30.2 90 -2.4 27.6
09:05 989 29.21 819 24.19 -1 30.2 90 -2.4 27.6
09:10 989 29.21 819 24.19 -0.9 30.3 89 -2.5 27.5
09:15 989 29.21 819 24.19 -0.9 30.4 89 -2.5 27.4
09:20 989 29.21 819 24.19 -0.8 30.5 88 -2.6 27.3
09:25 989 29.21 819 24.19 -0.7 30.7 87 -2.6 27.3
09:30 989 29.21 819 24.19 -0.7 30.8 87 -2.6 27.3
09:35 989 29.21 819 24.19 -0.6 30.8 86 -2.7 27.2
09:40 989 29.21 819 24.19 -0.6 30.9 86 -2.7 27.2
09:45 989 29.21 819 24.19 -0.6 30.9 86 -2.6 27.2
09:50 989 29.21 819 24.19 -0.6 31 86 -2.7 27.1
09:55 989 29.21 819 24.19 -0.5 31.1 85 -2.7 27.2
10:00 989 29.21 819 24.19 -0.4 31.2 85 -2.7 27.2
10:05 989 29.21 819 24.19 -0.4 31.3 85 -2.6 27.3
10:10 989 29.21 819 24.19 -0.3 31.5 85 -2.6 27.3
10:15 989 29.21 819 24.19 -0.3 31.4 85 -2.6 27.4
10:20 989 29.21 819 24.19 -0.3 31.5 84 -2.6 27.3
10:25 989 29.21 819 24.19 -0.2 31.7 84 -2.6 27.4
10:30 989 29.21 819 24.19 -0.2 31.7 84 -2.6 27.4
10:35 989 29.21 819 24.19 -0.1 31.9 83 -2.6 27.4
10:40 989 29.21 819 24.19 -0.1 31.9 83 -2.6 27.4
10:45 989 29.21 819 24.19 -0.1 31.8 84 -2.5 27.5
10:50 989 29.21 819 24.19 -0 31.9 83 -2.5 27.5
10:55 989 29.21 819 24.19 0.1 32.1 83 -2.5 27.6
11:00 989 29.21 819 24.19 0.2 32.3 83 -2.4 27.7
11:05 989 29.21 819 24.19 0.2 32.4 83 -2.4 27.6
11:10 989 29.21 819 24.19 0.3 32.5 83 -2.3 27.9
11:15 989 29.21 818 24.16 0.3 32.5 83 -2.2 28
11:20 989 29.21 818 24.16 0.3 32.5 83 -2.3 27.9
11:25 989 29.21 818 24.16 0.3 32.6 82 -2.3 27.9
11:30 989 29.21 818 24.16 0.4 32.7 82 -2.3 27.8
11:35 989 29.21 818 24.16 0.5 32.9 82 -2.2 28
11:40 989 29.21 818 24.16 0.7 33.2 82 -2.1 28.1
11:45 989 29.21 818 24.16 0.9 33.5 81 -2.1 28.3
11:50 989 29.21 818 24.16 1 33.8 80 -2.1 28.2
11:55 989 29.21 818 24.16 0.8 33.4 83 -1.9 28.6
12:00 989 29.21 818 24.16 0.9 33.7 79 -2.2 28
12:05 989 29.21 818 24.16 1.1 33.9 80 -2 28.4
12:10 989 29.21 818 24.16 1.2 34.1 81 -1.7 29
12:15 989 29.21 818 24.16 1.2 34.1 81 -1.6 29
12:20 989 29.21 818 24.16 1.1 34 83 -1.4 29.4
12:25 989 29.21 818 24.16 1.1 33.9 85 -1.2 29.8
12:30 989 29.21 818 24.16 0.8 33.5 86 -1.3 29.7
12:35 989 29.21 818 24.16 0.7 33.3 86 -1.3 29.7
12:40 989 29.21 818 24.16 0.7 33.2 87 -1.2 29.8
12:45 989 29.21 818 24.16 0.7 33.2 88 -1.1 30
12:50 989 29.21 818 24.16 0.6 33 89 -1.1 30
12:55 989 29.21 818 24.16 0.4 32.8 90 -1.1 30.1
13:00 989 29.21 818 24.16 0.3 32.5 90 -1.2 29.9
13:05 989 29.21 819 24.19 -0.1 31.8 86 -2.1 28.2
13:10 989 29.21 819 24.19 -1.6 29.1 88 -3.3 26
13:15 990 29.23 819 24.19 -2.6 27.3 89 -4.2 24.5
13:20 990 29.23 819 24.19 -3.2 26.3 91 -4.5 23.9
13:25 990 29.23 819 24.19 -3.4 25.8 91 -4.7 23.5
13:30 990 29.23 819 24.19 -3.7 25.4 90 -5.1 22.9
13:35 990 29.23 819 24.19 -3.9 25 91 -5.1 22.8
13:40 990 29.23 819 24.19 -4 24.8 91 -5.3 22.5
13:45 990 29.23 819 24.19 -4.1 24.6 90 -5.5 22.1
13:50 990 29.23 819 24.19 -4.3 24.2 90 -5.8 21.6
13:55 990 29.23 819 24.19 -4.5 23.9 90 -5.9 21.4
14:00 990 29.23 819 24.19 -4.7 23.6 91 -6 21.2
14:05 990 29.23 820 24.21 -4.8 23.3 90 -6.2 20.9
14:10 990 29.23 820 24.21 -5.1 22.9 90 -6.5 20.3
14:15 991 29.26 820 24.21 -5.3 22.5 90 -6.6 20
14:20 991 29.26 820 24.21 -5.2 22.6 89 -6.8 19.7
14:25 991 29.26 820 24.21 -5.4 22.4 89 -6.8 19.7
14:30 991 29.26 820 24.21 -5.2 22.6 89 -6.7 19.9
14:35 991 29.26 820 24.21 -5.4 22.4 88 -7 19.4
14:40 991 29.26 820 24.21 -5.5 22.1 89 -7.1 19.2
14:45 991 29.26 820 24.21 -5.5 22.2 89 -6.9 19.5
14:50 991 29.26 821 24.24 -5.4 22.2 87 -7.2 19
14:55 992 29.29 821 24.24 -5.7 21.7 86 -7.7 18.1
15:00 992 29.29 821 24.24 -6 21.2 88 -7.8 18
15:05 992 29.29 821 24.24 -6.1 21.1 89 -7.7 18.2
15:10 992 29.29 821 24.24 -6.4 20.6 87 -8.2 17.3
15:15 992 29.29 821 24.24 -6.8 19.7 89 -8.4 16.9
15:20 992 29.29 821 24.24 -7.1 19.3 88 -8.7 16.4
15:25 992 29.29 821 24.24 -7.1 19.2 89 -8.7 16.3
15:30 992 29.29 821 24.24 -7.1 19.2 89 -8.7 16.4
15:35 992 29.29 822 24.27 -7 19.4 89 -8.5 16.7
15:40 993 29.32 822 24.27 -7 19.4 89 -8.5 16.7
15:45 993 29.32 822 24.27 -7.1 19.2 89 -8.6 16.5
15:50 993 29.32 822 24.27 -7.4 18.8 89 -8.9 16.1
15:55 993 29.32 822 24.27 -7.4 18.6 90 -8.9 16
16:00 993 29.32 822 24.27 -7.3 18.8 89 -8.8 16.1
16:05 993 29.32 822 24.27 -7.4 18.6 89 -9 15.8
16:10 993 29.32 823 24.3 -7.5 18.6 89 -9 15.8
16:15 994 29.35 823 24.3 -7.6 18.3 89 -9.2 15.5
16:20 994 29.35 823 24.3 -7.9 17.8 90 -9.3 15.3
16:25 994 29.35 823 24.3 -7.9 17.7 90 -9.3 15.2
16:30 994 29.35 823 24.3 -8 17.6 89 -9.5 14.9
16:35 994 29.35 823 24.3 -8.3 17.1 89 -9.7 14.5
16:40 994 29.35 823 24.3 -8.4 16.8 90 -9.8 14.4
16:45 994 29.35 823 24.3 -8.4 16.9 89 -9.8 14.3
16:50 994 29.35 823 24.3 -8.5 16.7 90 -9.9 14.2
16:55 994 29.35 824 24.33 -8.6 16.5 89 -10.1 13.7
17:00 994 29.35 824 24.33 -8.8 16.1 89 -10.4 13.4
17:05 995 29.38 824 24.33 -9 15.8 89 -10.4 13.2
17:10 995 29.38 824 24.33 -9.1 15.7 90 -10.5 13.2
17:15 995 29.38 824 24.33 -9 15.7 89 -10.6 12.9
17:20 995 29.38 824 24.33 -9.3 15.3 89 -10.8 12.5
17:25 995 29.38 824 24.33 -9.4 15.1 89 -10.9 12.4
17:30 995 29.38 824 24.33 -9.5 14.9 90 -10.9 12.4
17:35 995 29.38 824 24.33 -9.6 14.7 89 -11.1 12.1
17:40 995 29.38 825 24.36 -9.7 14.6 90 -11.1 12
17:45 995 29.38 825 24.36 -9.8 14.4 89 -11.2 11.8
17:50 996 29.41 825 24.36 -9.8 14.4 90 -11.2 11.9
17:55 996 29.41 825 24.36 -9.9 14.3 90 -11.2 11.8
18:00 996 29.41 825 24.36 -9.9 14.2 90 -11.3 11.7
18:05 996 29.41 825 24.36 -9.9 14.2 90 -11.2 11.8
18:10 996 29.41 825 24.36 -9.9 14.2 90 -11.3 11.7
18:15 996 29.41 825 24.36 -10 14 90 -11.3 11.7
18:20 996 29.41 826 24.39 -9.9 14.1 90 -11.3 11.7
18:25 996 29.41 826 24.39 -9.8 14.3 90 -11.2 11.9
18:30 996 29.41 826 24.39 -9.9 14.2 90 -11.3 11.7
18:35 997 29.44 826 24.39 -9.9 14.1 90 -11.3 11.6
18:40 997 29.44 826 24.39 -10 14 90 -11.4 11.5
18:45 997 29.44 826 24.39 -10.2 13.6 89 -11.6 11
18:50 997 29.44 826 24.39 -10.5 13.1 90 -11.9 10.7
18:55 997 29.44 826 24.39 -10.5 13.1 90 -11.9 10.6
19:00 997 29.44 826 24.39 -10.6 12.9 90 -12 10.5
19:05 997 29.44 827 24.42 -10.7 12.8 90 -12.1 10.3
19:10 997 29.44 827 24.42 -10.8 12.6 89 -12.2 10
19:15 998 29.47 827 24.42 -10.8 12.6 89 -12.2 10
19:20 998 29.47 827 24.42 -10.9 12.4 89 -12.3 9.8
19:25 998 29.47 827 24.42 -11 12.2 89 -12.5 9.5
19:30 998 29.47 827 24.42 -11 12.2 89 -12.5 9.5
19:35 998 29.47 827 24.42 -11.1 12 89 -12.6 9.4
19:40 998 29.47 827 24.42 -11.2 11.9 89 -12.6 9.3
19:45 998 29.47 827 24.42 -11.3 11.8 89 -12.8 9
19:50 998 29.47 827 24.42 -11.4 11.5 89 -12.9 8.8
19:55 998 29.47 827 24.42 -11.4 11.5 89 -12.8 8.9
20:00 998 29.47 827 24.42 -11.5 11.3 88 -13 8.5
20:05 998 29.47 828 24.45 -11.5 11.2 89 -13.1 8.5
20:10 998 29.47 828 24.45 -11.5 11.3 89 -12.9 8.7
20:15 999 29.5 828 24.45 -11.4 11.5 88 -13 8.7
20:20 999 29.5 828 24.45 -11.3 11.6 88 -12.9 8.8
20:25 999 29.5 828 24.45 -11.4 11.4 89 -12.9 8.8
20:30 999 29.5 828 24.45 -11.5 11.3 88 -13.1 8.5
20:35 999 29.5 828 24.45 -11.6 11.2 88 -13.2 8.2
20:40 999 29.5 828 24.45 -11.6 11.2 88 -13.2 8.2
20:45 999 29.5 828 24.45 -11.5 11.3 87 -13.3 8.1
20:50 999 29.5 828 24.45 -11.7 10.9 87 -13.4 7.8
20:55 999 29.5 828 24.45 -11.8 10.7 88 -13.5 7.7
21:00 999 29.5 828 24.45 -11.9 10.7 87 -13.6 7.5
21:05 999 29.5 829 24.48 -11.9 10.7 87 -13.6 7.5
21:10 999 29.5 829 24.48 -11.9 10.6 87 -13.7 7.3
21:15 1000 29.53 829 24.48 -12 10.5 86 -13.8 7.1
21:20 1000 29.53 829 24.48 -12 10.4 86 -13.9 7.1
21:25 1000 29.53 829 24.48 -11.9 10.5 86 -13.8 7.1
21:30 1000 29.53 829 24.48 -12 10.5 85 -13.9 6.9
21:35 1000 29.53 829 24.48 -12.1 10.3 85 -14.1 6.7
21:40 1000 29.53 829 24.48 -12 10.3 85 -14 6.8
21:45 1000 29.53 829 24.48 -12 10.4 86 -13.9 6.9
21:50 1000 29.53 829 24.48 -12 10.3 86 -14 6.8
21:55 1000 29.53 829 24.48 -12.1 10.2 86 -14 6.9
22:00 1000 29.53 829 24.48 -12.1 10.1 86 -14 6.7
22:05 1000 29.53 830 24.51 -12.2 10.1 86 -14.1 6.7
22:10 1000 29.53 830 24.51 -12.3 10 87 -14 6.7
22:15 1001 29.56 830 24.51 -12.4 9.8 88 -14 6.8
22:20 1001 29.56 830 24.51 -12.3 9.8 87 -14.1 6.6
22:25 1001 29.56 830 24.51 -12.5 9.5 86 -14.4 6.1
22:30 1001 29.56 830 24.51 -12.6 9.3 87 -14.3 6.2
22:35 1001 29.56 830 24.51 -12.6 9.4 86 -14.4 6
22:40 1001 29.56 830 24.51 -12.8 8.9 88 -14.4 6
22:45 1001 29.56 830 24.51 -12.9 8.9 88 -14.4 6
22:50 1001 29.56 830 24.51 -12.7 9.1 88 -14.4 6.1
22:55 1001 29.56 830 24.51 -12.5 9.6 88 -14.1 6.6
23:00 1001 29.56 830 24.51 -12.4 9.6 87 -14.2 6.5
23:05 1001 29.56 830 24.51 -12.4 9.7 85 -14.4 6
23:10 1001 29.56 830 24.51 -12.5 9.4 86 -14.5 5.9
23:15 1001 29.56 830 24.51 -12.5 9.4 87 -14.3 6.2
23:20 1001 29.56 830 24.51 -12.6 9.3 84 -14.7 5.5
23:25 1001 29.56 830 24.51 -12.9 8.8 86 -14.8 5.3
23:30 1001 29.56 830 24.51 -12.9 8.7 86 -14.8 5.3
23:35 1001 29.56 830 24.51 -12.9 8.8 87 -14.7 5.6
23:40 1001 29.56 830 24.51 -12.7 9.2 86 -14.6 5.7
23:45 1001 29.56 830 24.51 -12.8 9 87 -14.5 5.8
23:50 1001 29.56 830 24.51 -12.7 9.2 85 -14.7 5.5
23:55 1001 29.56 830 24.51 -12.7 9.1 84 -14.8 5.3
24:00 1001 29.56 830 24.51 -12.8 8.9 84 -15 5.1